createdAt,value
2017-03-21T00:00:28.729Z,0
2017-03-21T00:01:28.194Z,0
2017-03-21T00:02:28.491Z,0
2017-03-21T00:03:28.881Z,0
2017-03-21T00:04:28.915Z,0
2017-03-21T00:05:28.302Z,0
2017-03-21T00:06:28.064Z,0
2017-03-21T00:07:28.103Z,0
2017-03-21T00:08:28.758Z,0
2017-03-21T00:09:28.836Z,0
2017-03-21T00:10:28.208Z,0
2017-03-21T00:11:28.211Z,0
2017-03-21T00:12:28.895Z,0
2017-03-21T00:13:29.199Z,0
2017-03-21T00:14:29.320Z,0
2017-03-21T00:15:28.966Z,0
2017-03-21T00:16:28.697Z,0
2017-03-21T00:17:29.077Z,0
2017-03-21T00:18:29.115Z,0
2017-03-21T00:19:29.151Z,0
2017-03-21T00:20:29.186Z,0
2017-03-21T00:21:29.188Z,0
2017-03-21T00:22:29.300Z,0
2017-03-21T00:23:29.305Z,0
2017-03-21T00:24:29.013Z,0
2017-03-21T00:25:29.325Z,0
2017-03-21T00:26:28.759Z,0
2017-03-21T00:27:28.790Z,0
2017-03-21T00:28:29.785Z,0
2017-03-21T00:29:29.474Z,0
2017-03-21T00:30:29.240Z,0
2017-03-21T00:31:29.274Z,0
2017-03-21T00:32:29.273Z,0
2017-03-21T00:33:29.618Z,0
2017-03-21T00:34:30.000Z,0
2017-03-21T00:35:29.388Z,0
2017-03-21T00:36:29.119Z,0
2017-03-21T00:37:29.502Z,0
2017-03-21T00:38:29.500Z,0
2017-03-21T00:39:29.869Z,0
2017-03-21T00:40:29.892Z,0
2017-03-21T00:41:29.308Z,0
2017-03-21T00:42:29.370Z,0
2017-03-21T00:43:30.023Z,0
2017-03-21T00:44:29.717Z,0
2017-03-21T00:45:30.089Z,0
2017-03-21T00:46:29.483Z,0
2017-03-21T00:47:29.827Z,0
2017-03-21T00:48:29.623Z,0
2017-03-21T00:49:30.240Z,0
2017-03-21T00:50:29.970Z,0
2017-03-21T00:51:29.660Z,0
2017-03-21T00:52:30.037Z,0
2017-03-21T00:53:30.042Z,0
2017-03-21T00:54:30.375Z,0
2017-03-21T00:55:30.133Z,0
2017-03-21T00:56:30.183Z,0
2017-03-21T00:57:29.919Z,0
2017-03-21T00:58:30.879Z,0
2017-03-21T00:59:30.601Z,0
2017-03-21T01:00:29.988Z,0
2017-03-21T01:01:30.053Z,0
2017-03-21T01:02:30.666Z,0
2017-03-21T01:03:31.057Z,0
2017-03-21T01:04:30.446Z,0
2017-03-21T01:05:30.166Z,0
2017-03-21T01:06:30.541Z,0
2017-03-21T01:07:30.578Z,0
2017-03-21T01:08:30.928Z,0
2017-03-21T01:09:31.266Z,0
2017-03-21T01:10:30.347Z,0
2017-03-21T01:11:30.412Z,0
2017-03-21T01:12:30.766Z,0
2017-03-21T01:13:31.120Z,0
2017-03-21T01:14:31.149Z,0
2017-03-21T01:15:30.566Z,0
2017-03-21T01:16:31.170Z,0
2017-03-21T01:17:30.953Z,0
2017-03-21T01:18:31.609Z,0
2017-03-21T01:19:31.285Z,0
2017-03-21T01:20:30.753Z,0
2017-03-21T01:21:31.399Z,0
2017-03-21T01:22:31.412Z,0
2017-03-21T01:23:31.480Z,0
2017-03-21T01:24:31.206Z,0
2017-03-21T01:25:30.897Z,0
2017-03-21T01:26:30.953Z,0
2017-03-21T01:27:31.614Z,0
2017-03-21T01:28:31.659Z,0
2017-03-21T01:29:31.389Z,0
2017-03-21T01:30:31.426Z,0
2017-03-21T01:31:31.453Z,0
2017-03-21T01:32:31.455Z,0
2017-03-21T01:33:31.183Z,0
2017-03-21T01:34:31.522Z,0
2017-03-21T01:35:31.597Z,0
2017-03-21T01:36:31.325Z,0
2017-03-21T01:37:31.361Z,0
2017-03-21T01:38:31.676Z,0
2017-03-21T01:39:32.053Z,0
2017-03-21T01:40:31.473Z,0
2017-03-21T01:41:31.819Z,0
2017-03-21T01:42:32.132Z,0
2017-03-21T01:43:32.164Z,0
2017-03-21T01:44:32.548Z,0
2017-03-21T01:45:32.226Z,0
2017-03-21T01:46:32.000Z,0
2017-03-21T01:47:31.694Z,0
2017-03-21T01:48:32.050Z,0
2017-03-21T01:49:32.112Z,0
2017-03-21T01:50:32.449Z,0
2017-03-21T01:51:32.179Z,0
2017-03-21T01:52:32.526Z,0
2017-03-21T01:53:32.525Z,0
2017-03-21T01:54:32.902Z,0
2017-03-21T01:55:32.286Z,0
2017-03-21T01:56:32.055Z,0
2017-03-21T01:57:32.676Z,0
2017-03-21T01:58:33.003Z,0
2017-03-21T01:59:32.740Z,0
2017-03-21T02:00:32.766Z,0
2017-03-21T02:01:32.805Z,0
2017-03-21T02:02:32.889Z,0
2017-03-21T02:03:32.886Z,0
2017-03-21T02:04:32.960Z,0
2017-03-21T02:05:32.346Z,0
2017-03-21T02:06:32.724Z,0
2017-03-21T02:07:32.727Z,0
2017-03-21T02:08:33.367Z,0
2017-03-21T02:09:32.837Z,0
2017-03-21T02:10:32.847Z,0
2017-03-21T02:11:32.906Z,0
2017-03-21T02:12:32.905Z,0
2017-03-21T02:13:33.566Z,0
2017-03-21T02:14:33.583Z,0
2017-03-21T02:15:33.090Z,0
2017-03-21T02:16:33.050Z,0
2017-03-21T02:17:33.740Z,0
2017-03-21T02:18:33.776Z,0
2017-03-21T02:19:33.200Z,0
2017-03-21T02:20:33.240Z,0
2017-03-21T02:21:33.580Z,0
2017-03-21T02:22:33.576Z,0
2017-03-21T02:23:33.962Z,0
2017-03-21T02:24:33.383Z,0
2017-03-21T02:25:33.070Z,0
2017-03-21T02:26:33.145Z,0
2017-03-21T02:27:33.760Z,0
2017-03-21T02:28:34.139Z,0
2017-03-21T02:29:33.869Z,0
2017-03-21T02:30:33.302Z,0
2017-03-21T02:31:33.291Z,0
2017-03-21T02:32:33.666Z,0
2017-03-21T02:33:34.319Z,0
2017-03-21T02:34:33.746Z,0
2017-03-21T02:35:33.779Z,0
2017-03-21T02:36:33.470Z,0
2017-03-21T02:37:33.811Z,0
2017-03-21T02:38:34.194Z,0
2017-03-21T02:39:33.588Z,0
2017-03-21T02:40:33.956Z,0
2017-03-21T02:41:33.682Z,0
2017-03-21T02:42:33.990Z,0
2017-03-21T02:43:34.683Z,0
2017-03-21T02:44:33.799Z,0
2017-03-21T02:45:34.133Z,0
2017-03-21T02:46:33.832Z,0
2017-03-21T02:47:34.207Z,0
2017-03-21T02:48:34.253Z,0
2017-03-21T02:49:34.901Z,0
2017-03-21T02:50:34.007Z,0
2017-03-21T02:51:34.309Z,0
2017-03-21T02:52:34.392Z,0
2017-03-21T02:53:34.697Z,0
2017-03-21T02:54:34.730Z,0
2017-03-21T02:55:34.456Z,0
2017-03-21T02:56:34.533Z,0
2017-03-21T02:57:34.536Z,0
2017-03-21T02:58:34.871Z,0
2017-03-21T02:59:34.640Z,0
2017-03-21T03:00:34.674Z,0
2017-03-21T03:01:34.419Z,0
2017-03-21T03:02:34.406Z,0
2017-03-21T03:03:35.092Z,0
2017-03-21T03:04:34.779Z,0
2017-03-21T03:05:34.824Z,0
2017-03-21T03:06:35.150Z,0
2017-03-21T03:07:35.496Z,0
2017-03-21T03:08:35.235Z,0
2017-03-21T03:09:34.657Z,0
2017-03-21T03:10:34.733Z,0
2017-03-21T03:11:34.731Z,0
2017-03-21T03:12:35.072Z,0
2017-03-21T03:13:35.407Z,0
2017-03-21T03:14:35.195Z,0
2017-03-21T03:15:35.188Z,0
2017-03-21T03:16:34.915Z,0
2017-03-21T03:17:35.593Z,0
2017-03-21T03:18:35.635Z,0
2017-03-21T03:19:35.014Z,0
2017-03-21T03:20:35.358Z,0
2017-03-21T03:21:35.102Z,0
2017-03-21T03:22:35.162Z,0
2017-03-21T03:23:35.467Z,0
2017-03-21T03:24:35.542Z,0
2017-03-21T03:25:35.529Z,0
2017-03-21T03:26:35.265Z,0
2017-03-21T03:27:35.657Z,0
2017-03-21T03:28:35.344Z,0
2017-03-21T03:29:35.713Z,0
2017-03-21T03:30:35.442Z,0
2017-03-21T03:31:35.783Z,0
2017-03-21T03:32:35.836Z,0
2017-03-21T03:33:36.163Z,0
2017-03-21T03:34:35.895Z,0
2017-03-21T03:35:35.933Z,0
2017-03-21T03:36:35.627Z,0
2017-03-21T03:37:36.004Z,0
2017-03-21T03:38:36.042Z,0
2017-03-21T03:39:35.732Z,0
2017-03-21T03:40:35.808Z,0
2017-03-21T03:41:36.104Z,0
2017-03-21T03:42:36.185Z,0
2017-03-21T03:43:36.182Z,0
2017-03-21T03:44:36.253Z,0
2017-03-21T03:45:36.254Z,0
2017-03-21T03:46:36.006Z,0
2017-03-21T03:47:36.697Z,0
2017-03-21T03:48:37.015Z,0
2017-03-21T03:49:36.430Z,0
2017-03-21T03:50:36.159Z,0
2017-03-21T03:51:36.163Z,0
2017-03-21T03:52:36.852Z,0
2017-03-21T03:53:37.189Z,0
2017-03-21T03:54:36.616Z,0
2017-03-21T03:55:36.950Z,0
2017-03-21T03:56:36.684Z,0
2017-03-21T03:57:36.722Z,0
2017-03-21T03:58:37.370Z,0
2017-03-21T03:59:36.754Z,0
2017-03-21T04:00:37.142Z,0
2017-03-21T04:01:36.824Z,0
2017-03-21T04:02:37.184Z,0
2017-03-21T04:03:37.237Z,0
2017-03-21T04:04:37.242Z,0
2017-03-21T04:05:36.661Z,0
2017-03-21T04:06:37.083Z,0
2017-03-21T04:07:37.082Z,0
2017-03-21T04:08:37.428Z,0
2017-03-21T04:09:36.816Z,0
2017-03-21T04:10:37.745Z,0
2017-03-21T04:11:36.932Z,0
2017-03-21T04:12:37.869Z,0
2017-03-21T04:13:37.912Z,0
2017-03-21T04:14:37.644Z,0
2017-03-21T04:15:37.327Z,0
2017-03-21T04:16:37.089Z,0
2017-03-21T04:17:37.437Z,0
2017-03-21T04:18:37.484Z,0
2017-03-21T04:19:37.511Z,0
2017-03-21T04:20:38.159Z,0
2017-03-21T04:21:37.586Z,0
2017-03-21T04:22:37.881Z,0
2017-03-21T04:23:37.958Z,0
2017-03-21T04:24:37.644Z,0
2017-03-21T04:25:37.413Z,0
2017-03-21T04:26:37.721Z,0
2017-03-21T04:27:38.417Z,0
2017-03-21T04:28:38.097Z,0
2017-03-21T04:29:37.869Z,0
2017-03-21T04:30:37.558Z,0
2017-03-21T04:31:37.594Z,0
2017-03-21T04:32:38.247Z,0
2017-03-21T04:33:38.272Z,0
2017-03-21T04:34:38.016Z,0
2017-03-21T04:35:38.082Z,0
2017-03-21T04:36:38.076Z,0
2017-03-21T04:37:38.720Z,0
2017-03-21T04:38:38.496Z,0
2017-03-21T04:39:38.187Z,0
2017-03-21T04:40:38.229Z,0
2017-03-21T04:41:37.955Z,4
2017-03-21T04:42:38.330Z,4
2017-03-21T04:43:38.632Z,4
2017-03-21T04:44:38.399Z,4
2017-03-21T04:45:38.703Z,0
2017-03-21T04:46:38.781Z,0
2017-03-21T04:47:39.127Z,4
2017-03-21T04:48:39.117Z,4
2017-03-21T04:49:38.255Z,8
2017-03-21T04:50:38.308Z,4
2017-03-21T04:51:38.350Z,8
2017-03-21T04:52:38.687Z,8
2017-03-21T04:53:39.307Z,12
2017-03-21T04:54:38.762Z,12
2017-03-21T04:55:38.452Z,16
2017-03-21T04:56:39.144Z,20
2017-03-21T04:57:39.132Z,24
2017-03-21T04:58:39.168Z,28
2017-03-21T04:59:38.906Z,36
2017-03-21T05:00:39.594Z,44
2017-03-21T05:01:38.970Z,48
2017-03-21T05:02:39.354Z,56
2017-03-21T05:03:39.346Z,68
2017-03-21T05:04:39.107Z,88
2017-03-21T05:05:38.836Z,104
2017-03-21T05:06:38.847Z,124
2017-03-21T05:07:39.877Z,136
2017-03-21T05:08:39.262Z,144
2017-03-21T05:09:39.912Z,144
2017-03-21T05:10:39.289Z,140
2017-03-21T05:11:39.063Z,140
2017-03-21T05:12:39.716Z,140
2017-03-21T05:13:39.749Z,144
2017-03-21T05:14:39.439Z,156
2017-03-21T05:15:39.507Z,164
2017-03-21T05:16:39.507Z,176
2017-03-21T05:17:39.891Z,184
2017-03-21T05:18:39.590Z,188
2017-03-21T05:19:39.961Z,196
2017-03-21T05:20:39.975Z,200
2017-03-21T05:21:39.694Z,200
2017-03-21T05:22:40.029Z,204
2017-03-21T05:23:40.073Z,220
2017-03-21T05:24:40.138Z,236
2017-03-21T05:25:39.600Z,252
2017-03-21T05:26:40.172Z,260
2017-03-21T05:27:40.511Z,268
2017-03-21T05:28:40.595Z,276
2017-03-21T05:29:40.275Z,288
2017-03-21T05:30:40.619Z,320
2017-03-21T05:31:40.350Z,356
2017-03-21T05:32:40.692Z,400
2017-03-21T05:33:40.464Z,428
2017-03-21T05:34:40.196Z,460
2017-03-21T05:35:40.223Z,460
2017-03-21T05:36:39.948Z,440
2017-03-21T05:37:40.268Z,436
2017-03-21T05:38:40.905Z,440
2017-03-21T05:39:40.374Z,460
2017-03-21T05:40:40.063Z,480
2017-03-21T05:41:40.704Z,480
2017-03-21T05:42:40.486Z,488
2017-03-21T05:43:40.176Z,504
2017-03-21T05:44:40.259Z,536
2017-03-21T05:45:40.894Z,644
2017-03-21T05:46:40.278Z,716
2017-03-21T05:47:40.927Z,824
2017-03-21T05:48:41.005Z,920
2017-03-21T05:49:41.001Z,1056
2017-03-21T05:50:40.425Z,1272
2017-03-21T05:51:40.467Z,1556
2017-03-21T05:52:41.103Z,1792
2017-03-21T05:53:40.841Z,1976
2017-03-21T05:54:40.573Z,2192
2017-03-21T05:55:40.639Z,2396
2017-03-21T05:56:40.644Z,2584
2017-03-21T05:57:41.308Z,2736
2017-03-21T05:58:41.332Z,2848
2017-03-21T05:59:40.750Z,2976
2017-03-21T06:00:40.825Z,3104
2017-03-21T06:01:41.124Z,3132
2017-03-21T06:02:41.512Z,3268
2017-03-21T06:03:41.855Z,3404
2017-03-21T06:04:41.239Z,3556
2017-03-21T06:05:40.999Z,3724
2017-03-21T06:06:41.007Z,3820
2017-03-21T06:07:41.047Z,3876
2017-03-21T06:08:41.080Z,3968
2017-03-21T06:09:41.416Z,4160
2017-03-21T06:10:41.185Z,4128
2017-03-21T06:11:41.526Z,3996
2017-03-21T06:12:41.567Z,4008
2017-03-21T06:13:41.908Z,4032
2017-03-21T06:14:41.599Z,3876
2017-03-21T06:15:41.673Z,3884
2017-03-21T06:16:41.368Z,4056
2017-03-21T06:17:41.790Z,4144
2017-03-21T06:18:41.818Z,4144
2017-03-21T06:19:41.509Z,4240
2017-03-21T06:20:42.463Z,4116
2017-03-21T06:21:41.895Z,3752
2017-03-21T06:22:42.584Z,3436
2017-03-21T06:23:42.279Z,3216
2017-03-21T06:24:41.769Z,2856
2017-03-21T06:25:42.854Z,2676
2017-03-21T06:26:42.038Z,2604
2017-03-21T06:27:42.076Z,2532
2017-03-21T06:28:42.468Z,2508
2017-03-21T06:29:41.881Z,2428
2017-03-21T06:30:42.796Z,2292
2017-03-21T06:31:42.230Z,2124
2017-03-21T06:32:42.262Z,1992
2017-03-21T06:33:42.605Z,1976
2017-03-21T06:34:42.029Z,2008
2017-03-21T06:35:42.067Z,2000
2017-03-21T06:36:42.144Z,1952
2017-03-21T06:37:42.788Z,1896
2017-03-21T06:38:43.122Z,1976
2017-03-21T06:39:42.216Z,2188
2017-03-21T06:40:42.554Z,2536
2017-03-21T06:41:42.326Z,2908
2017-03-21T06:42:43.282Z,3412
2017-03-21T06:43:42.971Z,4036
2017-03-21T06:44:42.395Z,4336
2017-03-21T06:45:42.857Z,4068
2017-03-21T06:46:42.501Z,3700
2017-03-21T06:47:42.816Z,3340
2017-03-21T06:48:43.150Z,2980
2017-03-21T06:49:42.608Z,2828
2017-03-21T06:50:42.922Z,2740
2017-03-21T06:51:42.711Z,2788
2017-03-21T06:52:42.998Z,2996
2017-03-21T06:53:43.339Z,3116
2017-03-21T06:54:43.377Z,3264
2017-03-21T06:55:43.142Z,3220
2017-03-21T06:56:43.442Z,3312
2017-03-21T06:57:43.842Z,3656
2017-03-21T06:58:43.522Z,3860
2017-03-21T06:59:42.944Z,3908
2017-03-21T07:00:43.321Z,4000
2017-03-21T07:01:43.017Z,3956
2017-03-21T07:02:43.726Z,3840
2017-03-21T07:03:43.397Z,3740
2017-03-21T07:04:43.479Z,3592
2017-03-21T07:05:43.246Z,3568
2017-03-21T07:06:43.949Z,3804
2017-03-21T07:07:44.252Z,4188
2017-03-21T07:08:43.926Z,4612
2017-03-21T07:09:43.954Z,5120
2017-03-21T07:10:43.653Z,5668
2017-03-21T07:11:44.034Z,6000
2017-03-21T07:12:44.150Z,6088
2017-03-21T07:13:44.067Z,6444
2017-03-21T07:14:43.534Z,5800
2017-03-21T07:15:43.836Z,4988
2017-03-21T07:16:43.921Z,4328
2017-03-21T07:17:44.519Z,3976
2017-03-21T07:18:44.561Z,4048
2017-03-21T07:19:43.986Z,4176
2017-03-21T07:20:43.759Z,4132
2017-03-21T07:21:44.099Z,4160
2017-03-21T07:22:44.748Z,4000
2017-03-21T07:23:44.443Z,3924
2017-03-21T07:24:43.896Z,3980
2017-03-21T07:25:44.243Z,4368
2017-03-21T07:26:44.282Z,4492
2017-03-21T07:27:44.590Z,4712
2017-03-21T07:28:44.015Z,4928
2017-03-21T07:29:44.702Z,5048
2017-03-21T07:30:44.434Z,5484
2017-03-21T07:31:44.779Z,6260
2017-03-21T07:32:44.482Z,6644
2017-03-21T07:33:44.513Z,6528
2017-03-21T07:34:45.201Z,6632
2017-03-21T07:35:44.621Z,6500
2017-03-21T07:36:44.964Z,5964
2017-03-21T07:37:44.656Z,5388
2017-03-21T07:38:44.731Z,4996
2017-03-21T07:39:44.769Z,4852
2017-03-21T07:40:44.805Z,4844
2017-03-21T07:41:44.535Z,4732
2017-03-21T07:42:45.158Z,4584
2017-03-21T07:43:45.224Z,4736
2017-03-21T07:44:44.921Z,5048
2017-03-21T07:45:44.650Z,5184
2017-03-21T07:46:44.721Z,5388
2017-03-21T07:47:45.683Z,5352
2017-03-21T07:48:45.103Z,5268
2017-03-21T07:49:44.800Z,5196
2017-03-21T07:50:45.438Z,5420
2017-03-21T07:51:45.527Z,5780
2017-03-21T07:52:45.522Z,6440
2017-03-21T07:53:45.599Z,7168
2017-03-21T07:54:45.633Z,8040
2017-03-21T07:55:45.373Z,9148
2017-03-21T07:56:45.095Z,10648
2017-03-21T07:57:45.748Z,11424
2017-03-21T07:58:46.126Z,11480
2017-03-21T08:00:30.640Z,11528
2017-03-21T08:00:45.247Z,11376
2017-03-21T08:01:45.587Z,10948
2017-03-21T08:02:46.198Z,12356
2017-03-21T08:03:45.362Z,10436
2017-03-21T08:04:45.976Z,10608
2017-03-21T08:05:45.440Z,11008
2017-03-21T08:06:45.742Z,12012
2017-03-21T08:07:46.388Z,12236
2017-03-21T08:08:45.831Z,11252
2017-03-21T08:09:45.894Z,10844
2017-03-21T08:10:45.595Z,11308
2017-03-21T08:11:45.953Z,12104
2017-03-21T08:12:46.026Z,12160
2017-03-21T08:13:45.818Z,10968
2017-03-21T08:14:45.750Z,9644
2017-03-21T08:15:45.784Z,8752
2017-03-21T08:16:45.876Z,8228
2017-03-21T08:17:46.544Z,8388
2017-03-21T08:18:46.816Z,8420
2017-03-21T08:19:46.892Z,8436
2017-03-21T08:20:45.977Z,8536
2017-03-21T08:21:46.356Z,8840
2017-03-21T08:22:46.365Z,8500
2017-03-21T08:23:46.097Z,7980
2017-03-21T08:24:47.850Z,7704
2017-03-21T08:25:46.196Z,7652
2017-03-21T08:26:46.582Z,8192
2017-03-21T08:27:47.661Z,10148
2017-03-21T08:28:46.938Z,11656
2017-03-21T08:29:46.358Z,11348
2017-03-21T08:30:46.395Z,10272
2017-03-21T08:31:46.428Z,9764
2017-03-21T08:33:33.770Z,11756
2017-03-21T08:34:51.507Z,13648
2017-03-21T08:35:49.958Z,13220
2017-03-21T08:36:50.319Z,11636
2017-03-21T08:37:50.348Z,11600
2017-03-21T08:38:50.068Z,12832
2017-03-21T08:39:51.601Z,12848
2017-03-21T08:40:50.154Z,12100
2017-03-21T08:41:50.502Z,12488
2017-03-21T08:42:50.222Z,17504
2017-03-21T08:43:50.836Z,13144
2017-03-21T08:44:50.874Z,12836
2017-03-21T08:45:50.325Z,13044
2017-03-21T08:46:53.284Z,13824
2017-03-21T08:47:50.395Z,15248
2017-03-21T08:48:52.432Z,15428
2017-03-21T08:49:51.212Z,14468
2017-03-21T08:50:50.845Z,13468
2017-03-21T08:51:52.892Z,12492
2017-03-21T08:52:50.578Z,11324
2017-03-21T08:53:51.234Z,10828
2017-03-21T08:54:51.272Z,11600
2017-03-21T08:55:51.006Z,12084
2017-03-21T08:56:50.746Z,12444
2017-03-21T08:57:50.782Z,13548
2017-03-21T08:58:51.126Z,15872
2017-03-21T08:59:51.463Z,15888
2017-03-21T09:00:50.897Z,11900
2017-03-21T09:01:50.939Z,10656
2017-03-21T09:02:51.586Z,10356
2017-03-21T09:03:51.923Z,10408
2017-03-21T09:04:51.053Z,10376
2017-03-21T09:05:51.098Z,10008
2017-03-21T09:06:52.039Z,9732
2017-03-21T09:07:51.785Z,9064
2017-03-21T09:08:54.365Z,8392
2017-03-21T09:09:51.554Z,8116
2017-03-21T09:10:51.617Z,8288
2017-03-21T09:11:51.332Z,8632
2017-03-21T09:12:51.978Z,8468
2017-03-21T09:13:51.406Z,8268
2017-03-21T09:14:51.748Z,8068
2017-03-21T09:15:52.088Z,8236
2017-03-21T09:16:51.523Z,8468
2017-03-21T09:17:52.188Z,8676
2017-03-21T09:18:54.029Z,8984
2017-03-21T09:19:54.949Z,9396
2017-03-21T09:20:54.361Z,9448
2017-03-21T09:21:51.725Z,9188
2017-03-21T09:22:51.841Z,8836
2017-03-21T09:23:55.385Z,8692
2017-03-21T09:24:55.734Z,9540
2017-03-21T09:25:51.889Z,10688
2017-03-21T09:26:54.414Z,11764
2017-03-21T09:27:54.415Z,13280
2017-03-21T09:28:52.296Z,14020
2017-03-21T09:29:53.860Z,12172
2017-03-21T09:30:54.770Z,11444
2017-03-21T09:31:52.417Z,11628
2017-03-21T09:32:52.754Z,12448
2017-03-21T09:33:55.408Z,12972
2017-03-21T09:34:52.331Z,11080
2017-03-21T09:35:52.270Z,9900
2017-03-21T09:36:52.355Z,8948
2017-03-21T09:37:52.654Z,8488
2017-03-21T09:38:55.011Z,8552
2017-03-21T09:39:52.727Z,8072
2017-03-21T09:40:54.536Z,7208
2017-03-21T09:41:55.282Z,6856
2017-03-21T09:42:55.891Z,6900
2017-03-21T09:43:54.601Z,6968
2017-03-21T09:44:54.898Z,7336
2017-03-21T09:45:54.018Z,7992
2017-03-21T09:46:52.712Z,8052
2017-03-21T09:47:53.878Z,8624
2017-03-21T09:48:52.842Z,10048
2017-03-21T09:49:53.325Z,12116
2017-03-21T09:50:55.296Z,15584
2017-03-21T09:51:53.197Z,13928
2017-03-21T09:52:53.017Z,13104
2017-03-21T09:53:52.998Z,14084
2017-03-21T09:54:53.005Z,16960
2017-03-21T09:55:53.427Z,18976
2017-03-21T09:56:53.248Z,19008
2017-03-21T09:57:53.124Z,17824
2017-03-21T09:58:53.764Z,17248
2017-03-21T09:59:53.229Z,17568
2017-03-21T10:00:53.316Z,18944
2017-03-21T10:01:53.607Z,20704
2017-03-21T10:02:53.320Z,18624
2017-03-21T10:03:53.965Z,21888
2017-03-21T10:04:53.542Z,25184
2017-03-21T10:05:53.467Z,29664
2017-03-21T10:06:54.128Z,28448
2017-03-21T10:07:54.126Z,25888
2017-03-21T10:08:53.559Z,24384
2017-03-21T10:09:53.842Z,21184
2017-03-21T10:10:53.644Z,18144
2017-03-21T10:11:53.677Z,14616
2017-03-21T10:12:54.322Z,12376
2017-03-21T10:13:54.133Z,10676
2017-03-21T10:14:53.796Z,9672
2017-03-21T10:15:53.842Z,9360
2017-03-21T10:16:53.896Z,9132
2017-03-21T10:17:54.253Z,9184
2017-03-21T10:18:53.960Z,9216
2017-03-21T10:19:54.011Z,8900
2017-03-21T10:20:54.472Z,8656
2017-03-21T10:21:54.112Z,8632
2017-03-21T10:22:54.875Z,8664
2017-03-21T10:23:54.462Z,8232
2017-03-21T10:24:54.211Z,7684
2017-03-21T10:25:54.241Z,7392
2017-03-21T10:26:54.587Z,7140
2017-03-21T10:27:54.360Z,7784
2017-03-21T10:28:54.359Z,8196
2017-03-21T10:29:54.476Z,7824
2017-03-21T10:30:54.476Z,7336
2017-03-21T10:31:54.485Z,7068
2017-03-21T10:32:54.828Z,6752
2017-03-21T10:33:54.584Z,6408
2017-03-21T10:34:54.936Z,6240
2017-03-21T10:35:54.967Z,6288
2017-03-21T10:36:55.314Z,6252
2017-03-21T10:37:54.744Z,5948
2017-03-21T10:38:54.781Z,5564
2017-03-21T10:39:55.085Z,5864
2017-03-21T10:40:55.165Z,6296
2017-03-21T10:41:55.172Z,6600
2017-03-21T10:42:54.910Z,6828
2017-03-21T10:43:54.941Z,7024
2017-03-21T10:44:55.009Z,6772
2017-03-21T10:45:55.051Z,6548
2017-03-21T10:46:55.478Z,6384
2017-03-21T10:47:55.102Z,6368
2017-03-21T10:48:55.205Z,6532
2017-03-21T10:49:55.208Z,7256
2017-03-21T10:50:55.245Z,8544
2017-03-21T10:51:55.551Z,9744
2017-03-21T10:52:55.290Z,10772
2017-03-21T10:53:55.627Z,11360
2017-03-21T10:54:55.414Z,11064
2017-03-21T10:55:55.405Z,10304
2017-03-21T10:56:56.048Z,9400
2017-03-21T10:57:55.821Z,9544
2017-03-21T10:58:55.541Z,9888
2017-03-21T10:59:56.159Z,9904
2017-03-21T11:00:55.911Z,9724
2017-03-21T11:01:55.639Z,9656
2017-03-21T11:02:56.320Z,9884
2017-03-21T11:03:55.829Z,10268
2017-03-21T11:04:55.755Z,10776
2017-03-21T11:05:55.804Z,11320
2017-03-21T11:06:56.194Z,12208
2017-03-21T11:07:56.179Z,12888
2017-03-21T11:08:56.261Z,13360
2017-03-21T11:09:56.255Z,13788
2017-03-21T11:10:55.997Z,13360
2017-03-21T11:11:56.373Z,12740
2017-03-21T11:12:56.442Z,12188
2017-03-21T11:13:56.419Z,11616
2017-03-21T11:14:56.187Z,11304
2017-03-21T11:15:56.182Z,11040
2017-03-21T11:16:56.363Z,10408
2017-03-21T11:17:56.269Z,9544
2017-03-21T11:18:56.603Z,8776
2017-03-21T11:19:56.647Z,8476
2017-03-21T11:20:56.385Z,8496
2017-03-21T11:21:56.724Z,8576
2017-03-21T11:22:56.760Z,8788
2017-03-21T11:24:03.435Z,8820
2017-03-21T11:25:03.223Z,8968
2017-03-21T11:25:56.883Z,9388
2017-03-21T11:26:56.967Z,9752
2017-03-21T11:27:57.124Z,9784
2017-03-21T11:28:59.272Z,10068
2017-03-21T11:29:57.040Z,10256
2017-03-21T11:31:03.901Z,10192
2017-03-21T11:31:59.671Z,10004
2017-03-21T11:32:56.853Z,9748
2017-03-21T11:34:01.659Z,9716
2017-03-21T11:34:59.208Z,9484
2017-03-21T11:35:57.289Z,9076
2017-03-21T11:37:02.377Z,7952
2017-03-21T11:37:57.053Z,8028
2017-03-21T11:38:57.092Z,8248
2017-03-21T11:40:01.746Z,7888
2017-03-21T11:41:02.689Z,7596
2017-03-21T11:41:57.517Z,7468
2017-03-21T11:42:57.554Z,7108
2017-03-21T11:44:02.529Z,7012
2017-03-21T11:44:57.342Z,7016
2017-03-21T11:46:00.310Z,7152
2017-03-21T11:46:57.405Z,7152
2017-03-21T11:47:57.440Z,7148
2017-03-21T11:49:03.303Z,7592
2017-03-21T11:49:58.881Z,7820
2017-03-21T11:50:58.446Z,7700
2017-03-21T11:52:03.863Z,7328
2017-03-21T11:52:58.385Z,7188
2017-03-21T11:54:03.643Z,7404
2017-03-21T11:54:58.015Z,7468
2017-03-21T11:55:58.054Z,7568
2017-03-21T11:57:04.691Z,7524
2017-03-21T11:58:03.970Z,7376
2017-03-21T11:59:04.664Z,7008
2017-03-21T11:59:59.180Z,7168
2017-03-21T12:00:58.243Z,6536
2017-03-21T12:01:58.319Z,6692
2017-03-21T12:03:04.976Z,8228
2017-03-21T12:03:58.737Z,8860
2017-03-21T12:05:03.749Z,8268
2017-03-21T12:06:00.737Z,8360
2017-03-21T12:06:58.175Z,10036
2017-03-21T12:07:58.221Z,11488
2017-03-21T12:08:58.293Z,12248
2017-03-21T12:09:58.600Z,12196
2017-03-21T12:11:04.869Z,12876
2017-03-21T12:12:00.451Z,11832
2017-03-21T12:12:58.715Z,11208
2017-03-21T12:13:58.453Z,11576
2017-03-21T12:14:58.532Z,11644
2017-03-21T12:16:05.974Z,11424
2017-03-21T12:16:58.567Z,11184
2017-03-21T12:18:02.192Z,9884
2017-03-21T12:19:04.082Z,8516
2017-03-21T12:19:59.295Z,7504
2017-03-21T12:21:05.885Z,6952
2017-03-21T12:22:01.768Z,6976
2017-03-21T12:22:59.413Z,6860
2017-03-21T12:24:03.909Z,6420
2017-03-21T12:25:05.995Z,6200
2017-03-21T12:25:58.928Z,6324
2017-03-21T12:26:58.959Z,5588
2017-03-21T12:28:07.360Z,4216
2017-03-21T12:28:59.645Z,3924
2017-03-21T12:29:59.688Z,4236
2017-03-21T12:30:59.149Z,4516
2017-03-21T12:31:59.461Z,4240
2017-03-21T12:32:59.860Z,4092
2017-03-21T12:33:59.273Z,4328
2017-03-21T12:34:59.928Z,3864
2017-03-21T12:35:59.353Z,3916
2017-03-21T12:36:59.355Z,4244
2017-03-21T12:37:59.993Z,4440
2017-03-21T12:38:59.425Z,4116
2017-03-21T12:39:59.473Z,4028
2017-03-21T12:41:00.109Z,3700
2017-03-21T12:41:59.546Z,3136
2017-03-21T12:43:00.491Z,2712
2017-03-21T12:43:59.964Z,2412
2017-03-21T12:44:59.666Z,2196
2017-03-21T12:46:00.367Z,2068
2017-03-21T12:46:59.733Z,2028
2017-03-21T12:48:00.384Z,2268
2017-03-21T12:48:59.909Z,2548
2017-03-21T12:50:00.588Z,2860
2017-03-21T12:50:59.960Z,3312
2017-03-21T12:52:00.582Z,3900
2017-03-21T12:53:01.204Z,4600
2017-03-21T12:54:00.782Z,5008
2017-03-21T12:55:00.047Z,5212
2017-03-21T12:56:00.154Z,5528
2017-03-21T12:57:00.115Z,5800
2017-03-21T12:58:00.759Z,5660
2017-03-21T12:59:00.198Z,5112
2017-03-21T13:00:00.533Z,4904
2017-03-21T13:01:00.268Z,5488
2017-03-21T13:02:00.308Z,6048
2017-03-21T13:03:00.458Z,6052
2017-03-21T13:04:01.510Z,5684
2017-03-21T13:05:01.122Z,5528
2017-03-21T13:06:00.472Z,5616
2017-03-21T13:07:00.497Z,5880
2017-03-21T13:08:00.534Z,6296
2017-03-21T13:09:01.184Z,6764
2017-03-21T13:10:00.617Z,6912
2017-03-21T13:11:00.653Z,7084
2017-03-21T13:12:00.723Z,7360
2017-03-21T13:13:00.757Z,7744
2017-03-21T13:14:00.852Z,7864
2017-03-21T13:15:01.113Z,7632
2017-03-21T13:16:00.845Z,7236
2017-03-21T13:17:00.916Z,7172
2017-03-21T13:18:01.221Z,7428
2017-03-21T13:19:01.908Z,7632
2017-03-21T13:20:00.996Z,7868
2017-03-21T13:21:01.377Z,8088
2017-03-21T13:22:01.414Z,8428
2017-03-21T13:23:01.111Z,8628
2017-03-21T13:24:01.181Z,8572
2017-03-21T13:25:01.534Z,8436
2017-03-21T13:26:01.530Z,8236
2017-03-21T13:27:01.605Z,8072
2017-03-21T13:28:01.949Z,8068
2017-03-21T13:29:02.255Z,8228
2017-03-21T13:30:02.343Z,8380
2017-03-21T13:31:01.421Z,8468
2017-03-21T13:32:01.593Z,8340
2017-03-21T13:33:02.144Z,8212
2017-03-21T13:34:01.532Z,8044
2017-03-21T13:35:01.573Z,7760
2017-03-21T13:36:02.218Z,7368
2017-03-21T13:37:01.685Z,7072
2017-03-21T13:38:02.047Z,6896
2017-03-21T13:39:02.868Z,6732
2017-03-21T13:40:01.783Z,6468
2017-03-21T13:41:02.024Z,6116
2017-03-21T13:42:01.886Z,5776
2017-03-21T13:43:02.188Z,5488
2017-03-21T13:44:02.530Z,5284
2017-03-21T13:45:02.260Z,5152
2017-03-21T13:46:02.035Z,5076
2017-03-21T13:47:02.035Z,4948